Terminal Aerodrome Forecast
Issued by NWS Melbourne, FL

Home | Current Version | Previous Version | Text Only | Print | Product List | Glossary On
Versions: 1 2 3 4 5 6 7 8 9 10 11 12 13 14 15 16
000
FTUS42 KMLB 172337
TAFVRB
TAF
KVRB 172337Z 1800/1824 14008KT P6SM VCSH SCT030 OVC150
     FM180400 22003KT P6SM SCT020 SCT060 OVC120
     FM181400 23008KT P6SM SCT020
     FM181900 10010KT P6SM VCTS SCT030CB BKN100=

USA.gov is the U.S. government's official web portal to all federal, state and local government web resources and services.